• Join FlightAware (Why Join?)
  • Login
  • US Flag 
11:33PM EST


 

Airport Tracker/Info


-or-


 

Live Flight TrackerFlight Track Log ✈ UAL395 ✈ 07-May-2013 ✈ KLAS - KSFO

Flight Track Log - Related Links

Times and Time Zones

All times are in EDT time to prevent confusion due to time zone crossing. See the UAL395 flight status page for this flight to view local times or setup timezone preferences in your user account.

Time Position Orientation Groundspeed Altitude Reporting Facility
EDT Latitude Longitude Course Direction KTS MPH feet Rate Location/Type
12:49PM 36.0753 -115.1739 270° West 182 209 3,300  Level Los Angeles Center
12:50PM 36.0636 -115.2600 261° West 245 282 5,100 1,380 Climbing Los Angeles Center
12:51PM 36.0558 -115.2633 199° South 232 267 5,400 2,520 Climbing Los Angeles Center
12:51PM 35.9953 -115.2931 202° Southwest 269 310 7,700 2,040 Climbing Los Angeles Center
12:52PM 35.9195 -115.3774 207° Southwest  Level FlightAware Approximate
12:52PM 35.9992 -115.2903 30° Northeast 263 303 7,500  Level Los Angeles Center
12:53PM 35.8834 -115.4777 270° West  Level FlightAware Approximate
12:53PM 35.9256 -115.3564 216° Southwest 274 315 11,000  Level Los Angeles Center
12:54PM 35.8833 -115.6055 270° West  Level FlightAware Approximate
12:54PM 35.8867 -115.4756 248° West 325 374 13,100  Level Los Angeles Center
12:55PM 35.8834 -115.7332 270° West  Level FlightAware Approximate
12:55PM 35.8906 -115.6244 272° West 357 411 16,100  Level Los Angeles Center
12:56PM 35.8925 -115.7511 271° West 368 423 18,400 1,980 Climbing Los Angeles Center
12:57PM 35.8964 -115.9122 272° West 382 440 20,700 1,800 Climbing Los Angeles Center
12:58PM 35.9531 -116.0347 300° West 400 460 22,600 1,680 Climbing Los Angeles Center
12:59PM 36.0408 -116.1358 317° Northwest 415 478 24,200 1,440 Climbing Los Angeles Center
01:00PM 36.1172 -116.2233 317° Northwest 418 481 25,600 1,260 Climbing Los Angeles Center
01:01PM 36.2044 -116.3253 317° Northwest 428 493 26,900 1,500 Climbing Los Angeles Center
01:03PM 36.3094 -116.4464 317° Northwest 431 496 29,000 1,320 Climbing Los Angeles Center
01:04PM 36.3953 -116.5458 317° Northwest 427 491 30,000 480 Climbing Los Angeles Center
01:05PM 36.5022 -116.6686 317° Northwest 436 502 30,000  Level Los Angeles Center
01:06PM 36.6158 -116.7889 320° Northwest 465 535 30,000  Level Los Angeles Center
01:07PM 36.7292 -116.8708 330° Northwest 469 540 30,000  Level Los Angeles Center
01:08PM 36.8175 -116.9394 328° Northwest 469 540 30,000  Level Los Angeles Center
01:09PM 36.9503 -117.0406 329° Northwest 465 535 30,000  Level Los Angeles Center
01:09PM 36.9722 -117.0592 326° Northwest 466 536 30,000  Level Oakland Center
01:10PM 37.1056 -117.1611 329° Northwest 467 537 30,000  Level Oakland Center
01:11PM 37.2153 -117.2478 328° Northwest 465 535 30,000  Level Oakland Center
01:12PM 37.3181 -117.3242 329° Northwest 437 503 30,000  Level Oakland Center
01:13PM 37.4264 -117.3919 334° Northwest 434 499 30,000  Level Oakland Center
01:14PM 37.5347 -117.4617 333° Northwest 435 501 30,000  Level Oakland Center
01:15PM 37.6406 -117.5361 331° Northwest 432 497 30,000  Level Oakland Center
01:16PM 37.7025 -117.6681 301° West 445 512 30,000  Level Oakland Center
01:17PM 37.7031 -117.8308 270° West 462 532 30,000  Level Oakland Center
01:18PM 37.7008 -117.9931 269° West 459 528 30,000  Level Oakland Center
01:19PM 37.6983 -118.1569 269° West 463 533 30,000  Level Oakland Center
01:20PM 37.6969 -118.3178 269° West 458 527 30,000  Level Oakland Center
01:21PM 37.6939 -118.4792 269° West 459 528 30,000  Level Oakland Center
01:22PM 37.6936 -118.6392 270° West 457 526 30,000  Level Oakland Center
01:23PM 37.6894 -118.8183 268° West 455 524 30,000  Level Oakland Center
01:24PM 37.6858 -118.9781 268° West 456 525 30,000  Level Oakland Center
01:25PM 37.6822 -119.1397 268° West 458 527 30,000  Level Oakland Center
01:27PM 37.6767 -119.3003 268° West 459 528 30,000  Level Oakland Center
01:28PM 37.6733 -119.4603 269° West 455 524 30,000  Level Oakland Center
01:29PM 37.6728 -119.6172 270° West 450 518 30,000  Level Oakland Center
01:30PM 37.6675 -119.7772 268° West 452 520 30,000  Level Oakland Center
01:31PM 37.6603 -119.9392 267° West 458 527 30,000  Level Oakland Center
01:32PM 37.6558 -120.1242 268° West 446 513 30,000 -60 Level Oakland Center
01:33PM 37.6514 -120.2814 268° West 445 512 29,900 -540 Descending Oakland Center
01:34PM 37.6453 -120.4325 267° West 438 504 29,000 -1,200 Descending Oakland Center
01:35PM 37.6419 -120.5681 268° West 399 459 27,500 -1,680 Descending Oakland Center
01:35PM 37.6333 -120.6333 261° West 383 441 26,600 -1,800 Descending Northern Cal TRACON
01:36PM 37.6333 -120.7500 270° West 373 429 25,000 -1,800 Descending Northern Cal TRACON
01:37PM 37.6333 -120.8833 270° West 358 412 23,000 -2,040 Descending Northern Cal TRACON
01:38PM 37.6167 -121.0000 260° West 351 404 21,000 -1,920 Descending Northern Cal TRACON
01:39PM 37.6167 -121.1000 270° West 338 389 19,400 -2,220 Descending Northern Cal TRACON
01:40PM 37.6000 -121.2167 260° West 327 376 16,800 -2,040 Descending Northern Cal TRACON
01:41PM 37.5833 -121.3167 258° West 299 344 15,400 -1,740 Descending Northern Cal TRACON
01:42PM 37.5833 -121.4167 270° West 288 331 13,500 -1,800 Descending Northern Cal TRACON
01:43PM 37.5667 -121.5167 258° West 283 326 11,800 -1,200 Descending Northern Cal TRACON
01:44PM 37.5333 -121.6167 247° West 274 315 11,000 -780 Descending Northern Cal TRACON
01:45PM 37.5167 -121.7000 256° West 269 310 10,400 -900 Descending Northern Cal TRACON
01:46PM 37.5000 -121.7833 256° West 263 303 9,300 -1,020 Descending Northern Cal TRACON
01:47PM 37.4833 -121.8667 256° West 243 280 8,400 -900 Descending Northern Cal TRACON
01:48PM 37.5000 -121.9333 288° West 210 242 7,500 -1,080 Descending Northern Cal TRACON
01:49PM 37.5167 -122.0167 284° West 209 241 6,300 -1,140 Descending Northern Cal TRACON
01:50PM 37.5333 -122.0833 288° West 201 231 5,300 -1,080 Descending Northern Cal TRACON
01:51PM 37.5500 -122.1333 293° West 199 229 4,300 -1,140 Descending Northern Cal TRACON